Beverly Hills, Florida
Current Conditions -  °F | °C
As of 4:15 AM on Sunday 21 Dec 2014 (Local Time) from KCGC Reporting Station
Overcast Overcast  
Wind Chill: 61°   Ceiling: 500
Heat Index: 61°   Visibility: 7mi
Dew Point: 59°   Wind: 7mph
Humidity: 94%   Direction: 80°E
Pressure: 30.06"   Gusts: NA
Location:  28.92°N, 82.47°W
Report Text: KCGC 210915Z AUTO 08006KT 7SM OVC005 16/15 A3006 RMK AO2
Loading
Personal Weather Stations






























Interactive Weather Map New forecast layout! Learn more

10-Day Weather Forecast

Advertisements
Track Severe Weather on mobile